Time;durP1;ratioP1;P1;durP2;ratioP2;P2;SDS_P1;SDS_P2;PMS_P1;PMS_P2;Temp;Humidity;BMP_temperature;BMP_pressure;BME280_temperature;BME280_humidity;BME280_pressure;Samples;Min_cycle;Max_cycle;Signal;HPM_P1;HPM_P2
2021/12/14 00:01:41;;;;;;;;;;;2.70;99.90;;;;;;5095150;28;19931;-46
2021/12/14 00:04:09;;;;;;;;;;;2.70;99.90;;;;;;5095199;28;19930;-45
2021/12/14 00:06:36;;;;;;;;;;;2.70;99.90;;;;;;5069035;28;20352;-47
2021/12/14 00:09:04;;;;;;;;;;;2.70;99.90;;;;;;5071499;28;19924;-45
2021/12/14 00:11:50;;;;;;;;;;;2.70;99.90;;;;;;5069379;28;19936;-46
2021/12/14 00:15:01;;;;;;;;;;;2.60;99.90;;;;;;5073152;28;20007;-45
2021/12/14 00:17:15;;;;;;;;;;;2.60;99.90;;;;;;5065019;28;19925;-46
2021/12/14 00:19:42;;;;;;;;;;;2.50;99.90;;;;;;5068438;28;20328;-46
2021/12/14 00:22:20;;;;;;;;;;;2.50;99.90;;;;;;5077956;28;19932;-46
2021/12/14 00:24:46;;;;;;;;;;;2.60;99.90;;;;;;5068076;28;20283;-46
2021/12/14 00:27:18;;;;;;;;;;;2.70;99.90;;;;;;5075569;28;19973;-46
2021/12/14 00:29:46;;;;;;;;;;;2.70;99.90;;;;;;5094889;28;19931;-46
2021/12/14 00:32:18;;;;;;;;;;;2.70;99.90;;;;;;5094491;28;19924;-46
2021/12/14 00:34:45;;;;;;;;;;;2.80;99.90;;;;;;5090254;28;20317;-46
2021/12/14 00:37:14;;;;;;;;;;;2.80;99.90;;;;;;5094534;28;20377;-46
2021/12/14 00:39:42;;;;;;;;;;;2.70;99.90;;;;;;5082581;28;19928;-47
2021/12/14 00:42:09;;;;;;;;;;;2.80;99.90;;;;;;5054039;28;19970;-46
2021/12/14 00:44:37;;;;;;;;;;;2.80;99.90;;;;;;5054029;28;20398;-45
2021/12/14 00:47:05;;;;;;;;;;;2.80;99.90;;;;;;5054074;28;19924;-45
2021/12/14 00:49:33;;;;;;;;;;;2.80;99.90;;;;;;5080315;28;19928;-45
2021/12/14 00:52:00;;;;;;;;;;;2.60;99.90;;;;;;5074030;28;20310;-45
2021/12/14 00:54:27;;;;;;;;;;;2.60;99.90;;;;;;5072456;28;20312;-46
2021/12/14 00:56:54;;;;;;;;;;;2.70;99.90;;;;;;5074171;28;19932;-46
2021/12/14 00:59:22;;;;;;;;;;;2.80;99.90;;;;;;5074043;28;19994;-45
2021/12/14 01:01:52;;;;;;;;;;;2.80;99.90;;;;;;5073159;28;19939;-46
2021/12/14 01:04:21;;;;;;;;;;;2.80;99.90;;;;;;5072049;28;19928;-45
2021/12/14 01:06:49;;;;;;;;;;;2.80;99.90;;;;;;5066420;28;19924;-46
2021/12/14 01:09:18;;;;;;;;;;;2.80;99.90;;;;;;5053827;28;19925;-46
2021/12/14 01:11:46;;;;;;;;;;;2.80;99.90;;;;;;5053429;28;20390;-46
2021/12/14 01:14:16;;;;;;;;;;;2.80;99.90;;;;;;5053570;28;19925;-46
2021/12/14 01:16:50;;;;;;;;;;;2.80;99.90;;;;;;5053620;28;19925;-46
2021/12/14 01:19:24;;;;;;;;;;;2.80;99.90;;;;;;5056431;28;19925;-45
2021/12/14 01:25:00;;;;;;;;;;;2.80;99.90;;;;;;5073278;28;19920;-46
2021/12/14 01:27:25;;;;;;;;;;;2.80;99.90;;;;;;5057972;28;19948;-46
2021/12/14 01:29:54;;;;;;;;;;;2.70;99.90;;;;;;5053669;28;19925;-46
2021/12/14 01:32:24;;;;;;;;;;;2.70;99.90;;;;;;5053135;28;20408;-46
2021/12/14 01:34:52;;;;;;;;;;;2.70;99.90;;;;;;5054486;28;19978;-45
2021/12/14 01:37:23;;;;;;;;;;;2.70;99.90;;;;;;5072174;28;19970;-46
2021/12/14 01:40:03;;;;;;;;;;;2.70;99.90;;;;;;5073351;28;19994;-45
2021/12/14 01:42:33;;;;;;;;;;;2.40;99.90;;;;;;5072851;28;19925;-46
2021/12/14 01:45:02;;;;;;;;;;;2.30;99.90;;;;;;5073169;28;19978;-46
2021/12/14 01:47:30;;;;;;;;;;;2.20;99.90;;;;;;5073176;28;19929;-46
2021/12/14 01:50:10;;;;;;;;;;;2.20;99.90;;;;;;5059389;28;19971;-46
2021/12/14 01:52:37;;;;;;;;;;;2.30;99.90;;;;;;5053732;28;19932;-46
2021/12/14 01:55:07;;;;;;;;;;;2.50;99.90;;;;;;5053057;28;19925;-46
2021/12/14 01:57:35;;;;;;;;;;;2.50;99.90;;;;;;5052925;28;19971;-46
2021/12/14 02:00:04;;;;;;;;;;;2.60;99.90;;;;;;5062317;28;20351;-46
2021/12/14 02:02:40;;;;;;;;;;;2.70;99.90;;;;;;5064024;28;19933;-45
2021/12/14 02:05:10;;;;;;;;;;;2.70;99.90;;;;;;5066001;28;19925;-46
2021/12/14 02:07:37;;;;;;;;;;;2.60;99.90;;;;;;5061532;28;19924;-45
2021/12/14 02:10:08;;;;;;;;;;;2.70;99.90;;;;;;5069120;28;20329;-44
2021/12/14 02:12:36;;;;;;;;;;;2.70;99.90;;;;;;5066584;28;20023;-45
2021/12/14 02:15:06;;;;;;;;;;;2.70;99.90;;;;;;5065656;28;20320;-46
2021/12/14 02:17:32;;;;;;;;;;;2.60;99.90;;;;;;5065651;28;19928;-45
2021/12/14 02:19:59;;;;;;;;;;;2.70;99.90;;;;;;5071947;28;19928;-45
2021/12/14 02:22:28;;;;;;;;;;;2.80;99.90;;;;;;5071302;28;19931;-45
2021/12/14 02:24:54;;;;;;;;;;;2.90;99.90;;;;;;5055241;28;19932;-46
2021/12/14 02:27:21;;;;;;;;;;;2.80;99.90;;;;;;5068873;28;20015;-45
2021/12/14 02:29:49;;;;;;;;;;;2.60;99.90;;;;;;5051897;28;19928;-46
2021/12/14 02:32:20;;;;;;;;;;;2.70;99.90;;;;;;5051379;28;19929;-45
2021/12/14 02:34:48;;;;;;;;;;;2.80;99.90;;;;;;5056177;28;20390;-46
2021/12/14 02:37:16;;;;;;;;;;;2.80;99.90;;;;;;5066731;28;19924;-46
2021/12/14 02:40:00;;;;;;;;;;;2.80;99.90;;;;;;5071815;28;19928;-46
2021/12/14 02:42:29;;;;;;;;;;;2.80;99.90;;;;;;5071731;28;19975;-46
2021/12/14 02:44:57;;;;;;;;;;;2.80;99.90;;;;;;5066992;28;19932;-46
2021/12/14 02:47:24;;;;;;;;;;;2.80;99.90;;;;;;5071038;28;19978;-45
2021/12/14 02:49:50;;;;;;;;;;;2.90;99.90;;;;;;5063534;28;19996;-46
2021/12/14 02:52:24;;;;;;;;;;;2.80;99.90;;;;;;5058178;28;20301;-46
2021/12/14 02:54:53;;;;;;;;;;;2.80;99.90;;;;;;5073278;28;19925;-46
2021/12/14 02:57:21;;;;;;;;;;;2.80;99.90;;;;;;5071651;28;20349;-45
2021/12/14 02:59:49;;;;;;;;;;;2.80;99.90;;;;;;5053961;28;20002;-46
2021/12/14 03:02:17;;;;;;;;;;;2.80;99.90;;;;;;5051354;28;20393;-46
2021/12/14 03:04:45;;;;;;;;;;;2.80;99.90;;;;;;5057995;28;19962;-46
2021/12/14 03:07:15;;;;;;;;;;;2.80;99.90;;;;;;5076012;28;20278;-48
2021/12/14 03:09:55;;;;;;;;;;;2.80;99.90;;;;;;5071571;28;19924;-47
2021/12/14 03:12:28;;;;;;;;;;;2.80;99.90;;;;;;5070620;28;19929;-46
2021/12/14 03:14:56;;;;;;;;;;;2.70;99.90;;;;;;5071673;28;19924;-47
2021/12/14 03:17:23;;;;;;;;;;;2.80;99.90;;;;;;5071621;28;19955;-47
2021/12/14 03:19:54;;;;;;;;;;;2.70;99.90;;;;;;5071591;28;19924;-47
2021/12/14 03:22:23;;;;;;;;;;;2.60;99.90;;;;;;5069679;28;20015;-47
2021/12/14 03:24:50;;;;;;;;;;;2.50;99.90;;;;;;5071435;28;19925;-47
2021/12/14 03:27:17;;;;;;;;;;;2.60;99.90;;;;;;5062424;28;20310;-48
2021/12/14 03:29:45;;;;;;;;;;;2.70;99.90;;;;;;5067052;28;19924;-48
2021/12/14 03:32:12;;;;;;;;;;;2.70;99.90;;;;;;5075412;28;19932;-47
2021/12/14 03:34:39;;;;;;;;;;;2.60;99.90;;;;;;5075383;28;20333;-47
2021/12/14 03:37:07;;;;;;;;;;;2.50;99.90;;;;;;5076600;28;19931;-47
2021/12/14 03:39:35;;;;;;;;;;;2.50;99.90;;;;;;5095874;28;19947;-49
2021/12/14 03:42:04;;;;;;;;;;;2.50;99.90;;;;;;5075298;28;19970;-48
2021/12/14 03:44:32;;;;;;;;;;;2.30;99.90;;;;;;5075258;28;19928;-48
2021/12/14 03:47:04;;;;;;;;;;;2.00;99.90;;;;;;5075312;28;20309;-47
2021/12/14 03:49:32;;;;;;;;;;;2.20;99.90;;;;;;5092239;28;19942;-47
2021/12/14 03:51:59;;;;;;;;;;;2.20;99.90;;;;;;5095419;28;19928;-47
2021/12/14 03:54:26;;;;;;;;;;;2.10;99.90;;;;;;5084977;28;19924;-47
2021/12/14 03:56:53;;;;;;;;;;;2.20;99.90;;;;;;5066995;28;19925;-48
2021/12/14 03:59:21;;;;;;;;;;;2.40;99.90;;;;;;5075148;28;19986;-48
2021/12/14 04:01:49;;;;;;;;;;;2.40;99.90;;;;;;5080280;28;19946;-47
2021/12/14 04:04:20;;;;;;;;;;;2.60;99.90;;;;;;5073005;28;20390;-48
2021/12/14 04:06:48;;;;;;;;;;;2.40;99.90;;;;;;5055070;28;19987;-47
2021/12/14 04:09:16;;;;;;;;;;;2.40;99.90;;;;;;5055069;28;19929;-48
2021/12/14 04:11:44;;;;;;;;;;;2.60;99.90;;;;;;5059997;28;20451;-47
2021/12/14 04:14:11;;;;;;;;;;;2.80;99.90;;;;;;5074779;28;19925;-46
2021/12/14 04:16:39;;;;;;;;;;;2.60;99.90;;;;;;5074676;28;19970;-46
2021/12/14 04:19:07;;;;;;;;;;;2.40;99.90;;;;;;5074695;28;20386;-46
2021/12/14 04:21:38;;;;;;;;;;;2.40;99.90;;;;;;5072288;28;19936;-46
2021/12/14 04:24:06;;;;;;;;;;;2.40;99.90;;;;;;5074753;28;19978;-45
2021/12/14 04:26:33;;;;;;;;;;;2.60;99.90;;;;;;5061855;28;19925;-46
2021/12/14 04:29:00;;;;;;;;;;;2.70;99.90;;;;;;5074277;28;19924;-45
2021/12/14 04:31:28;;;;;;;;;;;2.70;99.90;;;;;;5067647;28;19933;-45
2021/12/14 04:33:56;;;;;;;;;;;2.60;99.90;;;;;;5054429;28;20413;-46
2021/12/14 04:36:25;;;;;;;;;;;2.70;99.90;;;;;;5066516;28;19928;-46
2021/12/14 04:38:58;;;;;;;;;;;2.70;99.90;;;;;;5093772;28;19924;-46
2021/12/14 04:52:28;;;;;;;;;;;2.70;99.90;;;;;;5057866;28;19935;-47
2021/12/14 04:54:57;;;;;;;;;;;2.70;99.90;;;;;;5062168;28;20336;-46
2021/12/14 04:57:25;;;;;;;;;;;2.70;99.90;;;;;;5054288;28;19967;-45
2021/12/14 04:59:53;;;;;;;;;;;2.80;99.90;;;;;;5073796;28;19924;-46
2021/12/14 05:02:21;;;;;;;;;;;2.80;99.90;;;;;;5073655;28;19929;-46
2021/12/14 05:04:48;;;;;;;;;;;2.80;99.90;;;;;;5073851;28;19985;-45
2021/12/14 05:07:44;;;;;;;;;;;2.60;99.90;;;;;;5073779;28;19925;-46
2021/12/14 05:10:16;;;;;;;;;;;2.60;99.90;;;;;;5078004;28;19924;-46
2021/12/14 05:12:43;;;;;;;;;;;2.40;99.90;;;;;;5093809;28;19952;-46
2021/12/14 05:15:12;;;;;;;;;;;2.30;99.90;;;;;;5093172;28;19928;-45
2021/12/14 05:17:40;;;;;;;;;;;2.10;99.90;;;;;;5093561;28;19928;-45
2021/12/14 05:20:08;;;;;;;;;;;2.20;99.90;;;;;;5090683;28;19939;-46
2021/12/14 05:22:37;;;;;;;;;;;2.20;99.90;;;;;;5074543;28;19932;-46
2021/12/14 05:25:08;;;;;;;;;;;2.40;99.90;;;;;;5075660;28;20378;-46
2021/12/14 05:27:38;;;;;;;;;;;2.50;99.90;;;;;;5077609;28;19932;-45
2021/12/14 05:30:08;;;;;;;;;;;2.40;99.90;;;;;;5073296;28;19964;-46
2021/12/14 05:32:35;;;;;;;;;;;2.30;99.90;;;;;;5073066;28;19924;-45
2021/12/14 05:35:04;;;;;;;;;;;2.30;99.90;;;;;;5073274;28;19931;-46
2021/12/14 05:37:34;;;;;;;;;;;2.30;99.90;;;;;;5072008;28;19970;-46
2021/12/14 05:40:05;;;;;;;;;;;2.30;99.90;;;;;;5076201;28;19924;-46
2021/12/14 05:45:19;;;;;;;;;;;2.20;99.90;;;;;;5072767;28;20011;-45
2021/12/14 05:47:48;;;;;;;;;;;2.20;99.90;;;;;;5099519;22;19978;-47
2021/12/14 05:50:17;;;;;;;;;;;2.10;99.90;;;;;;5085241;28;19924;-46
2021/12/14 05:52:44;;;;;;;;;;;2.20;99.90;;;;;;5092450;28;19935;-47
2021/12/14 05:55:11;;;;;;;;;;;2.20;99.90;;;;;;5075822;28;19929;-47
2021/12/14 05:57:38;;;;;;;;;;;2.40;99.90;;;;;;5064741;28;19978;-47
2021/12/14 06:00:06;;;;;;;;;;;2.50;99.90;;;;;;5052702;28;19932;-47
2021/12/14 06:02:36;;;;;;;;;;;2.50;99.90;;;;;;5067908;28;19928;-47
2021/12/14 06:05:04;;;;;;;;;;;2.60;99.90;;;;;;5066211;28;19932;-47
2021/12/14 06:07:31;;;;;;;;;;;2.60;99.90;;;;;;5052388;28;19929;-47
2021/12/14 06:09:58;;;;;;;;;;;2.70;99.90;;;;;;5061153;28;20429;-47
2021/12/14 06:12:25;;;;;;;;;;;2.70;99.90;;;;;;5071992;28;19924;-47
2021/12/14 06:14:55;;;;;;;;;;;2.30;99.90;;;;;;5072411;28;19925;-46
2021/12/14 06:17:23;;;;;;;;;;;2.20;99.90;;;;;;5072317;28;19924;-47
2021/12/14 06:19:53;;;;;;;;;;;2.10;99.90;;;;;;5069984;28;20382;-47
2021/12/14 06:22:22;;;;;;;;;;;2.30;99.90;;;;;;5066896;28;19978;-47
2021/12/14 06:24:50;;;;;;;;;;;2.30;99.90;;;;;;5062646;28;19925;-47
2021/12/14 06:27:18;;;;;;;;;;;2.30;99.90;;;;;;5056275;28;20359;-47
2021/12/14 06:29:47;;;;;;;;;;;2.40;99.90;;;;;;5053220;28;19925;-47
2021/12/14 06:32:15;;;;;;;;;;;2.40;99.90;;;;;;5068750;28;19929;-47
2021/12/14 06:34:44;;;;;;;;;;;2.40;99.90;;;;;;5070458;28;20390;-47
2021/12/14 06:37:31;;;;;;;;;;;2.50;99.90;;;;;;5067052;28;19933;-47
2021/12/14 06:40:11;;;;;;;;;;;2.50;99.90;;;;;;5070471;28;19925;-47
2021/12/14 06:42:40;;;;;;;;;;;2.40;99.90;;;;;;5072070;28;19924;-47
2021/12/14 06:45:09;;;;;;;;;;;2.30;99.90;;;;;;5070286;28;20382;-47
2021/12/14 06:47:36;;;;;;;;;;;2.50;99.90;;;;;;5063124;28;19933;-46
2021/12/14 06:50:04;;;;;;;;;;;2.60;99.90;;;;;;5075584;28;19925;-47
2021/12/14 06:52:31;;;;;;;;;;;2.70;99.90;;;;;;5071659;28;19985;-47
2021/12/14 06:54:58;;;;;;;;;;;2.70;99.90;;;;;;5071876;28;20371;-47
2021/12/14 06:57:26;;;;;;;;;;;2.50;99.90;;;;;;5055214;28;20345;-47
2021/12/14 06:59:54;;;;;;;;;;;2.60;99.90;;;;;;5071311;28;19924;-47
2021/12/14 07:02:22;;;;;;;;;;;2.50;99.90;;;;;;5070758;28;19925;-47
2021/12/14 07:04:51;;;;;;;;;;;2.60;99.90;;;;;;5063347;28;19925;-46
2021/12/14 07:07:20;;;;;;;;;;;2.70;99.90;;;;;;5065707;28;19924;-47
2021/12/14 07:09:50;;;;;;;;;;;2.60;99.90;;;;;;5087771;28;19924;-47
2021/12/14 07:12:18;;;;;;;;;;;2.40;99.90;;;;;;5091939;28;19924;-47
2021/12/14 07:14:59;;;;;;;;;;;2.40;99.90;;;;;;5092241;28;19924;-47
2021/12/14 07:17:28;;;;;;;;;;;2.40;99.90;;;;;;5092027;28;19971;-47
2021/12/14 07:19:56;;;;;;;;;;;2.40;99.90;;;;;;5091772;28;20041;-47
2021/12/14 07:22:37;;;;;;;;;;;2.30;99.90;;;;;;5078915;28;19981;-47
2021/12/14 07:25:06;;;;;;;;;;;2.40;99.90;;;;;;5071830;28;19933;-47
2021/12/14 07:27:33;;;;;;;;;;;2.40;99.90;;;;;;5071474;28;20333;-47
2021/12/14 07:30:11;;;;;;;;;;;2.30;99.90;;;;;;5066927;28;19929;-47
2021/12/14 07:32:39;;;;;;;;;;;2.30;99.90;;;;;;5052763;28;20002;-47
2021/12/14 07:35:33;;;;;;;;;;;2.40;99.90;;;;;;5071157;28;19925;-47
2021/12/14 07:38:03;;;;;;;;;;;2.40;99.90;;;;;;5071479;28;20297;-46
2021/12/14 07:40:35;;;;;;;;;;;2.20;99.90;;;;;;5071257;28;19924;-46
2021/12/14 07:43:06;;;;;;;;;;;2.30;99.90;;;;;;5071214;28;20348;-47
2021/12/14 07:45:34;;;;;;;;;;;2.50;99.90;;;;;;5071163;28;19928;-47
2021/12/14 07:48:01;;;;;;;;;;;2.40;99.90;;;;;;5071289;28;19924;-47
2021/12/14 07:50:39;;;;;;;;;;;2.40;99.90;;;;;;5071332;28;19931;-47
2021/12/14 07:53:05;;;;;;;;;;;2.50;99.90;;;;;;5071051;28;20348;-47
2021/12/14 07:55:37;;;;;;;;;;;2.60;99.90;;;;;;5071400;28;20352;-47
2021/12/14 07:58:05;;;;;;;;;;;2.80;99.90;;;;;;5071272;28;19982;-46
2021/12/14 08:00:35;;;;;;;;;;;2.80;99.90;;;;;;5071688;28;19925;-47
2021/12/14 08:03:03;;;;;;;;;;;2.80;99.90;;;;;;5070922;28;20301;-47
2021/12/14 08:05:32;;;;;;;;;;;2.80;99.90;;;;;;5071185;28;19924;-47
2021/12/14 08:08:00;;;;;;;;;;;3.00;99.90;;;;;;5071210;28;20456;-47
2021/12/14 08:10:29;;;;;;;;;;;2.70;99.90;;;;;;5071185;28;20400;-47
2021/12/14 08:12:57;;;;;;;;;;;2.70;99.90;;;;;;5073638;28;19979;-47
2021/12/14 08:15:26;;;;;;;;;;;2.80;99.90;;;;;;5074580;28;19928;-47
2021/12/14 08:18:01;;;;;;;;;;;2.60;99.90;;;;;;5074718;28;19987;-47
2021/12/14 08:20:29;;;;;;;;;;;2.50;99.90;;;;;;5074696;28;20011;-47
2021/12/14 08:22:57;;;;;;;;;;;2.80;99.90;;;;;;5075497;28;19925;-47
2021/12/14 08:25:26;;;;;;;;;;;3.00;99.90;;;;;;5076493;28;19929;-47
2021/12/14 08:28:03;;;;;;;;;;;3.10;99.90;;;;;;5073026;28;19971;-47
2021/12/14 08:30:30;;;;;;;;;;;2.80;99.90;;;;;;5074240;28;19924;-47
2021/12/14 08:32:57;;;;;;;;;;;2.70;99.90;;;;;;5074089;28;20476;-47
2021/12/14 08:35:24;;;;;;;;;;;2.80;99.90;;;;;;5072426;28;19990;-47
2021/12/14 08:37:57;;;;;;;;;;;2.90;99.90;;;;;;5073775;28;20420;-47
2021/12/14 08:40:25;;;;;;;;;;;2.90;99.90;;;;;;5066355;28;20032;-47
2021/12/14 08:43:02;;;;;;;;;;;3.00;99.90;;;;;;5070937;28;19928;-47
2021/12/14 08:45:30;;;;;;;;;;;3.20;99.90;;;;;;5073078;28;19924;-47
2021/12/14 08:48:06;;;;;;;;;;;3.10;99.90;;;;;;5072566;28;19925;-47
2021/12/14 08:50:35;;;;;;;;;;;3.20;99.90;;;;;;5074094;28;20015;-47
2021/12/14 08:53:05;;;;;;;;;;;3.20;99.90;;;;;;5077942;28;19924;-46
2021/12/14 08:55:32;;;;;;;;;;;3.20;99.90;;;;;;5087784;28;19960;-47
2021/12/14 08:57:59;;;;;;;;;;;3.10;99.90;;;;;;5063094;28;19929;-47
2021/12/14 09:00:29;;;;;;;;;;;3.10;99.90;;;;;;5057873;28;19928;-47
2021/12/14 09:02:59;;;;;;;;;;;3.10;99.90;;;;;;5070427;28;20619;-47
2021/12/14 09:05:27;;;;;;;;;;;3.20;99.90;;;;;;5070917;28;20011;-47
2021/12/14 09:07:55;;;;;;;;;;;3.40;99.90;;;;;;5079241;28;19933;-47
2021/12/14 09:10:26;;;;;;;;;;;3.30;99.90;;;;;;5072954;28;20350;-47
2021/12/14 09:12:55;;;;;;;;;;;3.20;99.90;;;;;;5072771;28;20554;-47
2021/12/14 09:15:23;;;;;;;;;;;3.30;99.90;;;;;;5072541;28;19935;-47
2021/12/14 09:17:51;;;;;;;;;;;3.20;99.90;;;;;;5073295;28;20405;-48
2021/12/14 09:20:19;;;;;;;;;;;3.00;99.90;;;;;;5073430;28;19924;-47
2021/12/14 09:22:50;;;;;;;;;;;3.10;99.90;;;;;;5072099;28;20076;-47
2021/12/14 09:25:18;;;;;;;;;;;3.00;99.90;;;;;;5072415;28;19925;-47
2021/12/14 09:27:47;;;;;;;;;;;3.30;99.90;;;;;;5072920;28;20472;-47
2021/12/14 09:30:16;;;;;;;;;;;3.30;99.90;;;;;;5072860;28;19966;-47
2021/12/14 09:32:43;;;;;;;;;;;3.40;99.90;;;;;;5072896;28;19985;-47
2021/12/14 09:35:13;;;;;;;;;;;3.50;99.90;;;;;;5072952;28;19929;-47
2021/12/14 09:37:40;;;;;;;;;;;3.50;99.90;;;;;;5072262;28;19925;-47
2021/12/14 09:40:09;;;;;;;;;;;3.50;99.90;;;;;;5072102;28;19924;-47
2021/12/14 09:42:38;;;;;;;;;;;3.50;99.90;;;;;;5071820;28;20447;-47
2021/12/14 09:45:10;;;;;;;;;;;3.80;99.90;;;;;;5072898;28;19929;-47
2021/12/14 09:47:37;;;;;;;;;;;3.50;99.90;;;;;;5072107;28;20382;-47
2021/12/14 09:50:06;;;;;;;;;;;3.40;99.90;;;;;;5072529;28;19932;-47
2021/12/14 09:52:36;;;;;;;;;;;3.60;99.90;;;;;;5072359;28;19973;-47
2021/12/14 09:55:05;;;;;;;;;;;3.60;99.90;;;;;;5072995;28;19924;-47
2021/12/14 09:57:39;;;;;;;;;;;3.50;99.90;;;;;;5072372;28;20364;-48
2021/12/14 10:00:14;;;;;;;;;;;3.50;99.90;;;;;;5072713;28;19932;-47
2021/12/14 10:02:41;;;;;;;;;;;3.90;99.90;;;;;;5072190;28;20348;-47
2021/12/14 10:05:11;;;;;;;;;;;3.80;99.90;;;;;;5073301;28;20435;-47
2021/12/14 10:07:38;;;;;;;;;;;3.70;99.90;;;;;;5074136;28;20057;-48
2021/12/14 10:10:07;;;;;;;;;;;3.50;99.90;;;;;;5072940;28;19936;-47
2021/12/14 10:15:27;;;;;;;;;;;3.30;99.90;;;;;;5070336;28;19966;-47
2021/12/14 10:17:55;;;;;;;;;;;3.70;99.90;;;;;;5071768;28;20294;-47
2021/12/14 10:20:25;;;;;;;;;;;3.70;99.90;;;;;;5072511;28;19925;-47
2021/12/14 10:22:52;;;;;;;;;;;3.70;99.90;;;;;;5071178;28;20390;-47
2021/12/14 10:25:20;;;;;;;;;;;3.80;99.90;;;;;;5072357;28;19925;-47
2021/12/14 10:27:47;;;;;;;;;;;3.80;99.90;;;;;;5072252;28;19932;-47
2021/12/14 10:30:17;;;;;;;;;;;3.50;99.90;;;;;;5073079;28;20382;-47
2021/12/14 10:32:45;;;;;;;;;;;3.70;99.90;;;;;;5071565;28;19929;-47
2021/12/14 10:35:14;;;;;;;;;;;3.80;99.90;;;;;;5071310;28;19931;-47
2021/12/14 10:37:51;;;;;;;;;;;4.00;99.90;;;;;;5071258;28;19931;-47
2021/12/14 10:43:12;;;;;;;;;;;4.00;99.90;;;;;;5071887;28;19928;-47
2021/12/14 10:45:42;;;;;;;;;;;4.30;99.90;;;;;;5066583;28;19925;-47
2021/12/14 10:48:11;;;;;;;;;;;4.70;99.90;;;;;;5071093;28;19925;-47
2021/12/14 10:50:38;;;;;;;;;;;5.10;99.90;;;;;;5071544;28;20015;-48
2021/12/14 10:53:06;;;;;;;;;;;5.00;99.90;;;;;;5071406;28;19928;-47
2021/12/14 10:55:36;;;;;;;;;;;4.60;99.90;;;;;;5072085;28;20005;-47
2021/12/14 10:58:03;;;;;;;;;;;4.20;99.90;;;;;;5071709;28;19978;-47
2021/12/14 11:00:33;;;;;;;;;;;4.00;99.90;;;;;;5072208;28;19970;-47
2021/12/14 11:03:03;;;;;;;;;;;4.00;99.90;;;;;;5071668;28;19954;-47
2021/12/14 11:05:32;;;;;;;;;;;4.10;99.90;;;;;;5071825;28;19925;-47
2021/12/14 11:07:59;;;;;;;;;;;4.10;99.90;;;;;;5071665;28;19928;-47
2021/12/14 11:10:27;;;;;;;;;;;4.20;99.90;;;;;;5063963;28;19933;-47
2021/12/14 11:12:55;;;;;;;;;;;4.20;99.90;;;;;;5071468;28;20341;-47
2021/12/14 11:15:24;;;;;;;;;;;4.20;99.90;;;;;;5071663;28;19986;-47
2021/12/14 11:18:11;;;;;;;;;;;4.20;99.90;;;;;;5066935;28;19924;-47
2021/12/14 11:20:42;;;;;;;;;;;4.10;99.90;;;;;;5070083;28;20491;-48
2021/12/14 11:23:16;;;;;;;;;;;4.20;99.90;;;;;;5065715;28;19971;-48
2021/12/14 11:25:51;;;;;;;;;;;4.10;99.90;;;;;;5065311;28;20028;-48
2021/12/14 11:28:20;;;;;;;;;;;4.30;99.90;;;;;;5069863;28;19924;-47
2021/12/14 11:30:49;;;;;;;;;;;4.40;99.90;;;;;;5071167;28;19928;-47
2021/12/14 11:33:19;;;;;;;;;;;4.30;99.90;;;;;;5071244;28;20015;-48
2021/12/14 11:35:52;;;;;;;;;;;4.40;99.90;;;;;;5070605;28;20027;-48
2021/12/14 11:38:28;;;;;;;;;;;4.50;99.90;;;;;;5071159;28;19925;-47
2021/12/14 11:40:55;;;;;;;;;;;4.80;99.90;;;;;;5070933;28;19970;-48
2021/12/14 11:43:22;;;;;;;;;;;4.60;99.90;;;;;;5084764;28;19928;-48
2021/12/14 11:45:51;;;;;;;;;;;4.70;99.90;;;;;;5091545;28;19924;-48
2021/12/14 11:48:27;;;;;;;;;;;4.90;99.90;;;;;;5078825;28;19924;-48
2021/12/14 11:50:59;;;;;;;;;;;5.20;99.90;;;;;;5113598;22;19925;-47
2021/12/14 11:53:26;;;;;;;;;;;5.20;99.90;;;;;;5075204;28;19928;-46
2021/12/14 11:55:55;;;;;;;;;;;4.70;99.90;;;;;;5098196;28;19924;-46
2021/12/14 11:58:26;;;;;;;;;;;4.80;99.90;;;;;;5109208;28;20367;-47
2021/12/14 12:00:56;;;;;;;;;;;4.80;99.90;;;;;;5078230;28;20283;-46
2021/12/14 12:03:29;;;;;;;;;;;5.00;99.90;;;;;;5074911;28;20035;-47
2021/12/14 12:06:02;;;;;;;;;;;5.00;99.90;;;;;;5074458;28;19924;-46
2021/12/14 12:11:15;;;;;;;;;;;4.60;99.90;;;;;;5079114;28;20305;-46
2021/12/14 12:13:42;;;;;;;;;;;4.40;99.90;;;;;;5078240;28;19925;-47
2021/12/14 12:16:12;;;;;;;;;;;4.50;99.90;;;;;;5095166;28;19924;-47
2021/12/14 12:19:00;;;;;;;;;;;4.40;99.90;;;;;;5094774;28;19931;-46
2021/12/14 12:21:30;;;;;;;;;;;4.50;99.90;;;;;;5069912;28;19936;-47
2021/12/14 12:23:57;;;;;;;;;;;4.60;99.90;;;;;;5074446;28;19931;-46
2021/12/14 12:26:28;;;;;;;;;;;4.60;99.90;;;;;;5074137;28;19928;-46
2021/12/14 12:29:01;;;;;;;;;;;4.60;99.90;;;;;;5073137;28;19928;-47
2021/12/14 12:31:28;;;;;;;;;;;4.80;99.90;;;;;;5074280;28;19928;-46
2021/12/14 12:33:56;;;;;;;;;;;5.00;99.90;;;;;;5074098;28;19932;-47
2021/12/14 12:36:24;;;;;;;;;;;5.00;99.90;;;;;;5073712;28;20336;-48
2021/12/14 12:38:53;;;;;;;;;;;5.10;99.90;;;;;;5074115;28;19958;-46
2021/12/14 12:41:25;;;;;;;;;;;5.30;99.90;;;;;;5073505;28;20441;-46
2021/12/14 12:43:53;;;;;;;;;;;5.20;99.90;;;;;;5070808;28;20065;-46
2021/12/14 12:46:22;;;;;;;;;;;5.30;99.90;;;;;;5072891;28;19928;-46
2021/12/14 12:48:51;;;;;;;;;;;5.30;99.90;;;;;;5073757;28;19929;-47
2021/12/14 12:51:37;;;;;;;;;;;5.30;99.90;;;;;;5073570;28;19974;-47
2021/12/14 12:54:13;;;;;;;;;;;5.30;99.90;;;;;;5064622;28;19979;-47
2021/12/14 12:56:42;;;;;;;;;;;5.00;99.90;;;;;;5056411;28;20527;-46
2021/12/14 12:59:09;;;;;;;;;;;4.70;99.90;;;;;;5065032;28;19935;-46
2021/12/14 13:01:36;;;;;;;;;;;4.80;99.90;;;;;;5073468;28;20534;-47
2021/12/14 13:04:03;;;;;;;;;;;4.80;99.90;;;;;;5073598;28;19924;-46
2021/12/14 13:06:30;;;;;;;;;;;4.70;99.90;;;;;;5074135;28;19928;-46
2021/12/14 13:08:58;;;;;;;;;;;4.60;99.90;;;;;;5073077;28;19924;-46
2021/12/14 13:11:28;;;;;;;;;;;4.60;99.90;;;;;;5089157;28;19975;-46
2021/12/14 13:13:56;;;;;;;;;;;4.50;99.90;;;;;;5075107;28;19931;-47
2021/12/14 13:16:24;;;;;;;;;;;4.80;99.90;;;;;;5073329;28;20306;-46
2021/12/14 13:18:55;;;;;;;;;;;4.60;99.90;;;;;;5073185;28;19925;-47
2021/12/14 13:21:31;;;;;;;;;;;4.70;99.90;;;;;;5073647;28;20291;-46
2021/12/14 13:24:06;;;;;;;;;;;4.60;99.90;;;;;;5073474;28;19947;-46
2021/12/14 13:26:40;;;;;;;;;;;4.60;99.90;;;;;;5073509;28;20018;-46
2021/12/14 13:29:22;;;;;;;;;;;4.70;99.90;;;;;;5072543;28;19958;-46
2021/12/14 13:31:50;;;;;;;;;;;4.50;99.90;;;;;;5073107;28;20528;-46
2021/12/14 13:34:19;;;;;;;;;;;4.50;99.90;;;;;;5073302;28;19924;-47
2021/12/14 13:36:46;;;;;;;;;;;4.40;99.90;;;;;;5073325;28;19977;-47
2021/12/14 13:39:13;;;;;;;;;;;4.50;99.90;;;;;;5072765;28;19928;-47
2021/12/14 13:41:59;;;;;;;;;;;4.60;99.90;;;;;;5072919;28;19931;-47
2021/12/14 13:44:27;;;;;;;;;;;4.80;99.90;;;;;;5072924;28;19928;-46
2021/12/14 13:46:54;;;;;;;;;;;4.80;99.90;;;;;;5072443;28;20035;-46
2021/12/14 13:49:21;;;;;;;;;;;4.70;99.90;;;;;;5072462;28;20318;-46
2021/12/14 13:51:48;;;;;;;;;;;4.80;99.90;;;;;;5072266;28;19954;-46
2021/12/14 13:54:15;;;;;;;;;;;4.70;99.90;;;;;;5072844;28;19928;-46
2021/12/14 13:56:44;;;;;;;;;;;4.60;99.90;;;;;;5072854;28;20412;-46
2021/12/14 13:59:11;;;;;;;;;;;4.70;99.90;;;;;;5072216;28;19925;-46
2021/12/14 14:01:41;;;;;;;;;;;4.70;99.90;;;;;;5072558;28;20347;-46
2021/12/14 14:04:09;;;;;;;;;;;4.80;99.90;;;;;;5072923;28;20003;-46
2021/12/14 14:06:36;;;;;;;;;;;4.90;99.90;;;;;;5072526;28;19924;-46
2021/12/14 14:09:07;;;;;;;;;;;4.90;99.90;;;;;;5072322;28;19929;-46
2021/12/14 14:11:35;;;;;;;;;;;4.80;99.90;;;;;;5072143;28;19925;-45
2021/12/14 14:14:03;;;;;;;;;;;4.90;99.90;;;;;;5072642;28;19978;-46
2021/12/14 14:16:37;;;;;;;;;;;5.00;99.90;;;;;;5072553;28;19967;-46
2021/12/14 14:19:09;;;;;;;;;;;5.00;99.90;;;;;;5071934;28;19924;-46
2021/12/14 14:21:35;;;;;;;;;;;5.00;99.90;;;;;;5072239;28;19970;-47
2021/12/14 14:24:03;;;;;;;;;;;5.10;99.90;;;;;;5072434;28;20435;-47
2021/12/14 14:26:38;;;;;;;;;;;5.10;99.90;;;;;;5073432;28;19936;-47
2021/12/14 14:29:06;;;;;;;;;;;5.10;99.90;;;;;;5071775;28;19924;-46
2021/12/14 14:31:43;;;;;;;;;;;5.10;99.90;;;;;;5071834;28;19924;-46
2021/12/14 14:34:22;;;;;;;;;;;5.00;99.90;;;;;;5082740;28;19974;-46
2021/12/14 14:36:55;;;;;;;;;;;5.10;99.90;;;;;;5089584;28;19924;-46
2021/12/14 14:39:23;;;;;;;;;;;5.00;99.90;;;;;;5071894;28;20468;-46
2021/12/14 14:41:50;;;;;;;;;;;5.00;99.90;;;;;;5071876;28;19929;-46
2021/12/14 14:44:23;;;;;;;;;;;4.80;99.90;;;;;;5072161;28;19925;-46
2021/12/14 14:47:10;;;;;;;;;;;4.60;99.90;;;;;;5072265;28;20404;-47
2021/12/14 14:49:54;;;;;;;;;;;4.60;99.90;;;;;;5064931;28;19936;-46
2021/12/14 14:52:22;;;;;;;;;;;4.80;99.90;;;;;;5061048;28;20364;-46
2021/12/14 14:54:49;;;;;;;;;;;4.80;99.90;;;;;;5051928;28;20379;-46
2021/12/14 14:57:33;;;;;;;;;;;4.90;99.90;;;;;;5068552;28;20390;-47
2021/12/14 15:00:12;;;;;;;;;;;4.90;99.90;;;;;;5071949;28;20348;-46
2021/12/14 15:02:48;;;;;;;;;;;4.80;99.90;;;;;;5071709;28;19929;-47
2021/12/14 15:05:18;;;;;;;;;;;4.90;99.90;;;;;;5071744;28;19925;-46
2021/12/14 15:07:52;;;;;;;;;;;4.60;99.90;;;;;;5071399;28;19979;-46
2021/12/14 15:10:20;;;;;;;;;;;4.30;99.90;;;;;;5071469;28;19924;-46
2021/12/14 15:13:11;;;;;;;;;;;4.60;99.90;;;;;;5071003;28;19924;-45